createdAt,value
2023-01-22T00:00:17.873Z,20.83
2023-01-22T00:01:20.067Z,18.40
2023-01-22T00:02:21.877Z,19.53
2023-01-22T00:03:23.689Z,18.37
2023-01-22T00:04:25.461Z,18.27
2023-01-22T00:05:27.207Z,18.73
2023-01-22T00:06:28.960Z,16.63
2023-01-22T00:07:31.029Z,18.70
2023-01-22T00:08:34.024Z,19.53
2023-01-22T00:09:35.897Z,21.17
2023-01-22T00:10:37.617Z,20.20
2023-01-22T00:11:39.369Z,18.27
2023-01-22T00:12:41.158Z,20.83
2023-01-22T00:13:44.106Z,19.70
2023-01-22T00:14:46.433Z,17.77
2023-01-22T00:15:48.706Z,18.97
2023-01-22T00:16:50.481Z,18.47
2023-01-22T00:17:52.237Z,19.67
2023-01-22T00:18:53.959Z,21.10
2023-01-22T00:19:56.145Z,18.80
2023-01-22T00:20:58.034Z,19.60
2023-01-22T00:22:00.166Z,17.70
2023-01-22T00:23:01.891Z,18.87
2023-01-22T00:24:04.418Z,18.63
2023-01-22T00:25:06.919Z,17.57
2023-01-22T00:26:15.438Z,17.17
2023-01-22T00:27:17.368Z,17.43
2023-01-22T00:28:19.217Z,16.03
2023-01-22T00:29:21.017Z,18.83
2023-01-22T00:30:22.756Z,16.17
2023-01-22T00:31:24.987Z,17.93
2023-01-22T00:32:26.804Z,18.77
2023-01-22T00:33:29.684Z,15.87
2023-01-22T00:34:34.676Z,15.67
2023-01-22T00:35:36.454Z,17.27
2023-01-22T00:36:40.676Z,19.03
2023-01-22T00:37:42.337Z,16.90
2023-01-22T00:38:44.450Z,18.50
2023-01-22T00:39:46.411Z,17.13
2023-01-22T00:40:48.376Z,20.17
2023-01-22T00:41:50.412Z,16.00
2023-01-22T00:42:52.235Z,17.00
2023-01-22T00:43:54.044Z,19.17
2023-01-22T00:44:55.844Z,16.07
2023-01-22T00:45:57.821Z,18.07
2023-01-22T00:46:59.691Z,16.27
2023-01-22T00:48:02.205Z,16.77
2023-01-22T00:49:03.974Z,16.30
2023-01-22T00:50:07.768Z,17.93
2023-01-22T00:51:09.942Z,16.67
2023-01-22T00:52:11.826Z,16.77
2023-01-22T00:53:13.673Z,20.27
2023-01-22T00:54:15.488Z,17.90
2023-01-22T00:55:17.450Z,17.30
2023-01-22T00:56:19.180Z,17.20
2023-01-22T00:57:22.014Z,17.93
2023-01-22T00:58:24.074Z,17.43
2023-01-22T00:59:26.078Z,15.17
2023-01-22T01:00:30.079Z,16.03
2023-01-22T01:01:31.843Z,17.20
2023-01-22T01:02:36.309Z,16.93
2023-01-22T01:03:38.356Z,17.60
2023-01-22T01:04:48.087Z,14.33
2023-01-22T01:05:49.774Z,16.60
2023-01-22T01:06:51.582Z,16.63
2023-01-22T01:07:53.537Z,15.17
2023-01-22T01:08:55.347Z,17.07
2023-01-22T01:09:57.056Z,16.57
2023-01-22T01:11:01.504Z,17.63
2023-01-22T01:12:03.299Z,15.37
2023-01-22T01:13:06.389Z,15.87
2023-01-22T01:14:08.096Z,16.00
2023-01-22T01:15:10.359Z,18.40
2023-01-22T01:16:18.368Z,15.80
2023-01-22T01:17:20.163Z,17.90
2023-01-22T01:18:22.309Z,15.90
2023-01-22T01:19:23.993Z,16.40
2023-01-22T01:20:25.800Z,15.70
2023-01-22T01:21:28.358Z,16.53
2023-01-22T01:22:30.191Z,16.27
2023-01-22T01:23:32.029Z,16.40
2023-01-22T01:24:33.735Z,15.37
2023-01-22T01:25:35.560Z,16.63
2023-01-22T01:26:37.352Z,16.53
2023-01-22T01:27:39.208Z,16.33
2023-01-22T01:28:42.602Z,21.73
2023-01-22T01:29:44.419Z,17.93
2023-01-22T01:30:46.434Z,15.93
2023-01-22T01:31:53.192Z,14.63
2023-01-22T01:32:54.941Z,15.40
2023-01-22T01:33:57.084Z,16.40
2023-01-22T01:34:58.828Z,16.83
2023-01-22T01:36:16.130Z,16.83
2023-01-22T01:37:17.965Z,17.87
2023-01-22T01:38:19.696Z,15.13
2023-01-22T01:39:21.499Z,16.90
2023-01-22T01:40:23.312Z,16.10
2023-01-22T01:41:26.629Z,15.77
2023-01-22T01:42:35.023Z,16.77
2023-01-22T01:43:36.797Z,16.60
2023-01-22T01:44:40.673Z,18.00
2023-01-22T01:45:43.181Z,14.97
2023-01-22T01:46:52.869Z,19.03
2023-01-22T01:48:06.075Z,16.73
2023-01-22T01:49:15.915Z,14.60
2023-01-22T01:50:20.766Z,15.40
2023-01-22T01:51:35.509Z,15.97
2023-01-22T01:52:37.447Z,16.90
2023-01-22T01:53:40.894Z,18.40
2023-01-22T01:54:47.730Z,17.70
2023-01-22T01:55:50.253Z,18.80
2023-01-22T01:56:57.156Z,17.17
2023-01-22T01:58:03.495Z,17.43
2023-01-22T01:59:08.829Z,17.00
2023-01-22T02:00:14.237Z,15.80
2023-01-22T02:01:18.064Z,18.90
2023-01-22T02:02:20.672Z,14.83
2023-01-22T02:03:22.983Z,17.53
2023-01-22T02:04:25.714Z,19.27
2023-01-22T02:05:30.664Z,16.40
2023-01-22T02:06:32.410Z,17.90
2023-01-22T02:07:34.220Z,17.67
2023-01-22T02:08:35.939Z,18.57
2023-01-22T02:09:37.794Z,17.57
2023-01-22T02:10:40.047Z,17.50
2023-01-22T02:11:42.660Z,16.27
2023-01-22T02:12:44.466Z,17.20
2023-01-22T02:13:55.062Z,17.50
2023-01-22T02:14:58.104Z,18.93
2023-01-22T02:16:00.062Z,17.53
2023-01-22T02:17:11.646Z,17.30
2023-01-22T02:18:13.527Z,19.03
2023-01-22T02:19:15.224Z,17.03
2023-01-22T02:20:17.287Z,19.17
2023-01-22T02:21:40.137Z,15.73
2023-01-22T02:22:42.114Z,16.57
2023-01-22T02:23:43.897Z,18.47
2023-01-22T02:24:45.733Z,18.07
2023-01-22T02:25:47.723Z,18.67
2023-01-22T02:26:49.474Z,17.37
2023-01-22T02:27:51.253Z,16.23
2023-01-22T02:28:53.007Z,16.50
2023-01-22T02:29:54.795Z,19.60
2023-01-22T02:30:56.540Z,17.27
2023-01-22T02:31:58.333Z,16.43
2023-01-22T02:33:00.156Z,16.50
2023-01-22T02:34:02.044Z,15.70
2023-01-22T02:35:03.886Z,17.00
2023-01-22T02:36:06.182Z,16.13
2023-01-22T02:37:08.196Z,16.33
2023-01-22T02:38:09.993Z,16.27
2023-01-22T02:39:11.706Z,16.13
2023-01-22T02:40:13.748Z,16.13
2023-01-22T02:41:15.635Z,16.47
2023-01-22T02:42:17.371Z,17.10
2023-01-22T02:43:19.237Z,17.27
2023-01-22T02:44:20.987Z,17.13
2023-01-22T02:45:23.584Z,16.87
2023-01-22T02:46:25.987Z,15.53
2023-01-22T02:47:27.791Z,17.30
2023-01-22T02:48:29.570Z,16.53
2023-01-22T02:49:31.462Z,18.00
2023-01-22T02:50:33.193Z,15.70
2023-01-22T02:51:34.920Z,16.43
2023-01-22T02:52:36.660Z,15.67
2023-01-22T02:53:38.546Z,18.37
2023-01-22T02:54:40.267Z,17.87
2023-01-22T02:55:44.802Z,19.47
2023-01-22T02:56:46.548Z,18.13
2023-01-22T02:57:48.452Z,14.83
2023-01-22T02:58:50.617Z,17.47
2023-01-22T02:59:52.357Z,16.93
2023-01-22T03:00:54.245Z,16.57
2023-01-22T03:01:57.201Z,17.90
2023-01-22T03:02:58.973Z,17.07
2023-01-22T03:04:10.954Z,16.50
2023-01-22T03:05:15.160Z,16.03
2023-01-22T03:06:21.705Z,16.83
2023-01-22T03:07:23.520Z,16.33
2023-01-22T03:08:26.635Z,18.63
2023-01-22T03:09:28.435Z,16.63
2023-01-22T03:10:30.153Z,18.07
2023-01-22T03:11:35.037Z,16.13
2023-01-22T03:12:55.320Z,19.97
2023-01-22T03:14:16.083Z,16.67
2023-01-22T03:15:36.550Z,15.70
2023-01-22T03:16:56.793Z,16.70
2023-01-22T03:18:17.627Z,18.07
2023-01-22T03:19:38.566Z,16.23
2023-01-22T03:20:58.844Z,16.50
2023-01-22T03:22:00.616Z,17.07
2023-01-22T03:23:02.371Z,15.50
2023-01-22T03:24:04.527Z,16.63
2023-01-22T03:25:06.708Z,16.17
2023-01-22T03:26:08.812Z,14.67
2023-01-22T03:27:11.036Z,16.97
2023-01-22T03:28:18.845Z,18.47
2023-01-22T03:29:20.753Z,17.93
2023-01-22T03:30:22.487Z,15.40
2023-01-22T03:31:24.391Z,14.87
2023-01-22T03:32:26.410Z,16.67
2023-01-22T03:33:28.734Z,17.80
2023-01-22T03:34:30.424Z,15.93
2023-01-22T03:35:32.152Z,16.23
2023-01-22T03:36:33.838Z,16.83
2023-01-22T03:37:35.602Z,16.30
2023-01-22T03:38:37.903Z,17.67
2023-01-22T03:39:40.540Z,17.13
2023-01-22T03:40:42.757Z,16.37
2023-01-22T03:41:44.502Z,17.73
2023-01-22T03:42:46.396Z,17.83
2023-01-22T03:43:48.323Z,16.50
2023-01-22T03:44:50.081Z,15.43
2023-01-22T03:45:51.874Z,18.90
2023-01-22T03:46:54.090Z,15.40
2023-01-22T03:47:55.888Z,15.57
2023-01-22T03:48:57.966Z,16.63
2023-01-22T03:49:59.720Z,15.77
2023-01-22T03:51:08.859Z,17.13
2023-01-22T03:52:10.574Z,16.60
2023-01-22T03:53:12.230Z,15.63
2023-01-22T03:54:15.337Z,16.57
2023-01-22T03:55:17.327Z,16.37
2023-01-22T03:56:22.234Z,16.67
2023-01-22T03:57:24.020Z,15.93
2023-01-22T03:58:26.296Z,15.73
2023-01-22T03:59:28.012Z,17.10
2023-01-22T04:00:29.906Z,17.07
2023-01-22T04:01:31.902Z,16.03
2023-01-22T04:02:34.426Z,18.40
2023-01-22T04:03:36.538Z,15.77
2023-01-22T04:04:38.428Z,17.13
2023-01-22T04:05:40.236Z,18.87
2023-01-22T04:06:42.087Z,16.37
2023-01-22T04:07:43.807Z,16.40
2023-01-22T04:08:46.729Z,16.90
2023-01-22T04:09:48.535Z,16.50
2023-01-22T04:10:50.507Z,17.83
2023-01-22T04:11:52.273Z,18.53
2023-01-22T04:12:54.223Z,19.43
2023-01-22T04:13:56.464Z,21.33
2023-01-22T04:14:58.197Z,20.20
2023-01-22T04:16:00.217Z,17.50
2023-01-22T04:17:01.944Z,25.67
2023-01-22T04:18:03.981Z,23.30
2023-01-22T04:19:05.739Z,20.57
2023-01-22T04:20:08.551Z,17.57
2023-01-22T04:21:10.495Z,20.37
2023-01-22T04:22:12.521Z,17.40
2023-01-22T04:23:14.286Z,18.27
2023-01-22T04:24:16.111Z,22.53
2023-01-22T04:25:17.984Z,17.13
2023-01-22T04:26:19.690Z,19.70
2023-01-22T04:27:21.494Z,19.07
2023-01-22T04:28:23.315Z,21.07
2023-01-22T04:29:25.029Z,19.37
2023-01-22T04:30:26.855Z,16.93
2023-01-22T04:31:28.789Z,16.40
2023-01-22T04:32:30.607Z,20.00
2023-01-22T04:33:32.426Z,19.37
2023-01-22T04:34:34.160Z,18.47
2023-01-22T04:35:37.073Z,21.00
2023-01-22T04:36:38.782Z,17.30
2023-01-22T04:37:40.582Z,19.00
2023-01-22T04:38:42.379Z,17.70
2023-01-22T04:39:44.130Z,19.30
2023-01-22T04:40:45.977Z,17.00
2023-01-22T04:41:48.051Z,16.63
2023-01-22T04:42:50.190Z,19.27
2023-01-22T04:43:51.878Z,17.87
2023-01-22T04:44:54.137Z,16.50
2023-01-22T04:45:55.902Z,16.80
2023-01-22T04:46:57.742Z,18.43
2023-01-22T04:48:00.166Z,16.50
2023-01-22T04:49:01.948Z,17.37
2023-01-22T04:50:03.824Z,17.20
2023-01-22T04:51:05.786Z,18.63
2023-01-22T04:52:07.578Z,17.17
2023-01-22T04:53:10.537Z,16.10
2023-01-22T04:54:12.312Z,16.77
2023-01-22T04:55:14.270Z,16.23
2023-01-22T04:56:18.293Z,20.53
2023-01-22T04:57:20.000Z,17.77
2023-01-22T04:58:21.792Z,16.50
2023-01-22T04:59:23.503Z,17.63
2023-01-22T05:00:27.068Z,16.17
2023-01-22T05:01:28.851Z,17.03
2023-01-22T05:02:30.676Z,17.70
2023-01-22T05:03:32.470Z,15.93
2023-01-22T05:04:34.203Z,18.83
2023-01-22T05:05:35.974Z,16.47
2023-01-22T05:06:37.809Z,16.33
2023-01-22T05:07:39.554Z,17.30
2023-01-22T05:08:41.377Z,14.63
2023-01-22T05:09:43.227Z,17.63
2023-01-22T05:10:44.998Z,18.00
2023-01-22T05:11:46.731Z,15.87
2023-01-22T05:12:49.042Z,14.73
2023-01-22T05:13:50.878Z,18.70
2023-01-22T05:14:52.607Z,16.40
2023-01-22T05:15:54.415Z,15.40
2023-01-22T05:16:56.253Z,16.03
2023-01-22T05:17:58.019Z,15.33
2023-01-22T05:18:59.767Z,16.43
2023-01-22T05:20:01.726Z,16.07
2023-01-22T05:21:04.283Z,15.83
2023-01-22T05:22:06.314Z,18.23
2023-01-22T05:23:08.330Z,14.57
2023-01-22T05:24:10.310Z,17.33
2023-01-22T05:25:12.591Z,17.23
2023-01-22T05:26:14.466Z,17.60
2023-01-22T05:27:16.245Z,16.93
2023-01-22T05:28:18.043Z,17.57
2023-01-22T05:29:25.525Z,16.07
2023-01-22T05:30:27.355Z,15.50
2023-01-22T05:31:29.144Z,14.67
2023-01-22T05:32:30.846Z,18.43
2023-01-22T05:33:32.616Z,16.37
2023-01-22T05:34:34.588Z,16.73
2023-01-22T05:35:36.385Z,18.33
2023-01-22T05:36:38.086Z,15.73
2023-01-22T05:37:39.815Z,18.10
2023-01-22T05:38:41.608Z,16.33
2023-01-22T05:39:43.596Z,19.23
2023-01-22T05:40:46.044Z,16.97
2023-01-22T05:41:47.814Z,16.63
2023-01-22T05:42:49.541Z,18.33
2023-01-22T05:43:51.337Z,16.77
2023-01-22T05:44:53.132Z,19.03
2023-01-22T05:45:54.914Z,17.10
2023-01-22T05:46:56.786Z,17.37
2023-01-22T05:47:58.652Z,16.73
2023-01-22T05:49:00.404Z,18.17
2023-01-22T05:50:02.706Z,19.37
2023-01-22T05:51:06.715Z,17.90
2023-01-22T05:52:11.879Z,14.93
2023-01-22T05:53:13.740Z,17.80
2023-01-22T05:54:15.675Z,17.07
2023-01-22T05:55:17.479Z,16.00
2023-01-22T05:56:19.349Z,16.43
2023-01-22T05:57:21.257Z,17.30
2023-01-22T05:58:23.040Z,17.37
2023-01-22T05:59:24.722Z,15.87
2023-01-22T06:00:26.785Z,17.77
2023-01-22T06:01:28.650Z,17.10
2023-01-22T06:02:30.666Z,18.27
2023-01-22T06:03:32.901Z,17.97
2023-01-22T06:04:34.640Z,17.23
2023-01-22T06:05:36.582Z,18.37
2023-01-22T06:06:38.279Z,18.47
2023-01-22T06:07:40.198Z,17.87
2023-01-22T06:08:42.028Z,17.17
2023-01-22T06:09:43.756Z,17.83
2023-01-22T06:10:45.452Z,16.87
2023-01-22T06:11:47.207Z,16.73
2023-01-22T06:12:49.067Z,16.60
2023-01-22T06:13:50.832Z,17.97
2023-01-22T06:14:55.544Z,17.00
2023-01-22T06:15:57.562Z,17.83
2023-01-22T06:16:59.458Z,17.67
2023-01-22T06:18:01.788Z,20.60
2023-01-22T06:19:03.574Z,18.23
2023-01-22T06:20:06.174Z,16.87
2023-01-22T06:21:08.752Z,17.50
2023-01-22T06:22:10.597Z,17.00
2023-01-22T06:23:12.454Z,17.80
2023-01-22T06:24:14.321Z,18.03
2023-01-22T06:25:16.167Z,19.73
2023-01-22T06:26:18.025Z,15.87
2023-01-22T06:27:19.825Z,16.50
2023-01-22T06:28:22.553Z,19.13
2023-01-22T06:29:24.302Z,18.27
2023-01-22T06:30:26.068Z,18.47
2023-01-22T06:31:27.881Z,19.57
2023-01-22T06:32:29.684Z,21.17
2023-01-22T06:33:33.633Z,19.90
2023-01-22T06:34:35.433Z,18.40
2023-01-22T06:35:37.144Z,19.33
2023-01-22T06:36:38.894Z,20.00
2023-01-22T06:37:40.625Z,20.17
2023-01-22T06:38:42.581Z,20.37
2023-01-22T06:39:44.330Z,19.67
2023-01-22T06:40:54.827Z,20.17
2023-01-22T06:41:56.714Z,18.47
2023-01-22T06:42:58.465Z,17.77
2023-01-22T06:44:00.265Z,20.57
2023-01-22T06:45:02.081Z,16.73
2023-01-22T06:46:04.567Z,20.17
2023-01-22T06:47:06.281Z,18.77
2023-01-22T06:48:07.993Z,22.17
2023-01-22T06:49:10.792Z,18.03
2023-01-22T06:50:13.271Z,21.50
2023-01-22T06:51:15.140Z,17.33
2023-01-22T06:52:16.888Z,18.37
2023-01-22T06:53:18.618Z,19.87
2023-01-22T06:54:20.475Z,18.90
2023-01-22T06:55:22.310Z,23.63
2023-01-22T06:56:24.150Z,19.30
2023-01-22T06:57:25.942Z,22.30
2023-01-22T06:58:28.236Z,21.07
2023-01-22T06:59:30.797Z,19.60
2023-01-22T07:00:34.266Z,19.73
2023-01-22T07:01:36.138Z,20.97
2023-01-22T07:02:37.861Z,21.20
2023-01-22T07:03:39.613Z,19.93
2023-01-22T07:04:41.334Z,19.23
2023-01-22T07:05:43.212Z,20.30
2023-01-22T07:06:45.030Z,19.67
2023-01-22T07:07:47.731Z,21.83
2023-01-22T07:08:49.969Z,21.53
2023-01-22T07:09:51.819Z,20.67
2023-01-22T07:10:53.982Z,19.47
2023-01-22T07:11:57.477Z,21.13
2023-01-22T07:12:59.198Z,20.37
2023-01-22T07:14:00.915Z,18.93
2023-01-22T07:15:02.969Z,16.80
2023-01-22T07:16:05.922Z,17.73
2023-01-22T07:17:07.890Z,19.57
2023-01-22T07:18:10.880Z,18.93
2023-01-22T07:19:12.581Z,19.83
2023-01-22T07:20:14.432Z,20.53
2023-01-22T07:21:16.152Z,20.53
2023-01-22T07:22:17.952Z,17.80
2023-01-22T07:23:19.896Z,18.70
2023-01-22T07:24:21.905Z,20.47
2023-01-22T07:25:23.687Z,21.80
2023-01-22T07:26:25.545Z,18.80
2023-01-22T07:27:27.347Z,19.67
2023-01-22T07:28:29.140Z,20.70
2023-01-22T07:29:30.921Z,20.23
2023-01-22T07:30:33.003Z,18.67
2023-01-22T07:31:34.858Z,21.30
2023-01-22T07:32:36.899Z,20.50
2023-01-22T07:33:38.671Z,18.97
2023-01-22T07:34:40.443Z,20.03
2023-01-22T07:35:42.255Z,27.37
2023-01-22T07:36:45.736Z,20.73
2023-01-22T07:37:54.591Z,25.07
2023-01-22T07:38:56.447Z,23.37
2023-01-22T07:39:58.214Z,21.97
2023-01-22T07:41:11.470Z,22.13
2023-01-22T07:42:22.107Z,22.13
2023-01-22T07:43:23.915Z,22.37
2023-01-22T07:44:25.623Z,22.53
2023-01-22T07:45:27.443Z,21.33
2023-01-22T07:46:29.728Z,21.30
2023-01-22T07:47:31.476Z,22.17
2023-01-22T07:48:33.313Z,21.50
2023-01-22T07:49:35.299Z,24.17
2023-01-22T07:50:40.472Z,21.77
2023-01-22T07:51:42.342Z,25.03
2023-01-22T07:52:45.539Z,20.83
2023-01-22T07:53:47.248Z,20.80
2023-01-22T07:54:48.990Z,23.07
2023-01-22T07:55:50.778Z,21.57
2023-01-22T07:56:52.625Z,23.57
2023-01-22T07:58:02.030Z,22.63
2023-01-22T07:59:03.813Z,21.90
2023-01-22T08:00:06.209Z,20.87
2023-01-22T08:01:08.417Z,22.87
2023-01-22T08:02:13.141Z,23.23
2023-01-22T08:03:15.357Z,24.73
2023-01-22T08:04:17.045Z,21.83
2023-01-22T08:05:19.770Z,24.67
2023-01-22T08:06:21.557Z,20.17
2023-01-22T08:07:23.663Z,24.00
2023-01-22T08:08:25.670Z,23.60
2023-01-22T08:09:27.416Z,25.90
2023-01-22T08:10:29.299Z,22.20
2023-01-22T08:11:31.157Z,24.50
2023-01-22T08:12:32.964Z,25.63
2023-01-22T08:13:34.710Z,26.17
2023-01-22T08:14:36.633Z,22.17
2023-01-22T08:15:38.459Z,22.30
2023-01-22T08:16:40.517Z,20.67
2023-01-22T08:17:42.353Z,21.37
2023-01-22T08:18:44.159Z,22.03
2023-01-22T08:19:46.106Z,21.10
2023-01-22T08:20:48.005Z,21.73
2023-01-22T08:21:49.861Z,19.60
2023-01-22T08:22:56.792Z,19.43
2023-01-22T08:23:58.567Z,20.73
2023-01-22T08:25:00.417Z,21.00
2023-01-22T08:26:04.087Z,21.20
2023-01-22T08:27:05.837Z,20.73
2023-01-22T08:28:07.884Z,20.87
2023-01-22T08:29:09.875Z,22.20
2023-01-22T08:30:12.105Z,21.53
2023-01-22T08:31:26.910Z,23.63
2023-01-22T08:32:29.497Z,23.53
2023-01-22T08:33:33.222Z,22.10
2023-01-22T08:34:35.059Z,22.10
2023-01-22T08:35:39.285Z,23.73
2023-01-22T08:36:41.385Z,22.67
2023-01-22T08:37:44.114Z,22.17
2023-01-22T08:38:45.919Z,22.27
2023-01-22T08:39:47.657Z,23.07
2023-01-22T08:40:51.041Z,21.47
2023-01-22T08:41:57.373Z,21.10
2023-01-22T08:42:59.269Z,22.83
2023-01-22T08:44:01.061Z,23.93
2023-01-22T08:45:03.067Z,22.40
2023-01-22T08:46:04.902Z,20.80
2023-01-22T08:47:06.663Z,21.50
2023-01-22T08:48:08.542Z,22.90
2023-01-22T08:49:10.340Z,22.97
2023-01-22T08:50:12.872Z,19.80
2023-01-22T08:51:17.765Z,20.77
2023-01-22T08:52:19.588Z,21.77
2023-01-22T08:53:21.369Z,22.10
2023-01-22T08:54:23.459Z,21.03
2023-01-22T08:55:27.604Z,22.53
2023-01-22T08:56:29.403Z,21.17
2023-01-22T08:57:31.169Z,20.13
2023-01-22T08:58:33.506Z,22.50
2023-01-22T08:59:35.312Z,23.07
2023-01-22T09:00:37.029Z,20.10
2023-01-22T09:01:38.911Z,20.40
2023-01-22T09:02:40.688Z,22.63
2023-01-22T09:03:43.250Z,21.43
2023-01-22T09:04:45.225Z,21.67
2023-01-22T09:05:47.029Z,21.80
2023-01-22T09:06:48.707Z,21.30
2023-01-22T09:07:50.396Z,22.10
2023-01-22T09:08:52.490Z,24.03
2023-01-22T09:09:54.656Z,22.20
2023-01-22T09:10:56.395Z,23.23
2023-01-22T09:11:58.078Z,23.00
2023-01-22T09:13:00.578Z,22.33
2023-01-22T09:14:02.749Z,23.00
2023-01-22T09:15:04.836Z,22.30
2023-01-22T09:16:10.720Z,21.07
2023-01-22T09:17:12.568Z,21.43
2023-01-22T09:18:14.363Z,21.83
2023-01-22T09:19:17.098Z,20.87
2023-01-22T09:20:19.871Z,25.03
2023-01-22T09:21:21.841Z,24.10
2023-01-22T09:22:23.575Z,21.87
2023-01-22T09:23:25.339Z,20.63
2023-01-22T09:24:27.029Z,22.37
2023-01-22T09:25:29.468Z,21.23
2023-01-22T09:26:32.434Z,24.60
2023-01-22T09:27:34.348Z,25.67
2023-01-22T09:28:36.333Z,22.30
2023-01-22T09:29:38.313Z,23.30
2023-01-22T09:30:41.778Z,24.97
2023-01-22T09:31:43.737Z,23.50
2023-01-22T09:32:45.537Z,26.67
2023-01-22T09:33:47.225Z,28.53
2023-01-22T09:34:48.926Z,28.80
2023-01-22T09:35:50.705Z,26.93
2023-01-22T09:36:52.484Z,26.47
2023-01-22T09:37:54.896Z,24.67
2023-01-22T09:38:56.775Z,27.17
2023-01-22T09:39:58.547Z,25.33
2023-01-22T09:41:04.236Z,25.27
2023-01-22T09:42:07.373Z,26.73
2023-01-22T09:43:24.656Z,26.80
2023-01-22T09:44:48.416Z,24.03
2023-01-22T09:45:54.987Z,23.87
2023-01-22T09:47:18.315Z,25.63
2023-01-22T09:48:20.446Z,26.30
2023-01-22T09:49:28.329Z,25.37
2023-01-22T09:50:34.804Z,24.47
2023-01-22T09:51:37.349Z,24.23
2023-01-22T09:52:40.217Z,22.73
2023-01-22T09:53:45.707Z,23.33
2023-01-22T09:54:49.125Z,23.83
2023-01-22T09:55:53.819Z,24.57
2023-01-22T09:56:59.437Z,23.13
2023-01-22T09:58:05.710Z,21.43
2023-01-22T09:59:17.819Z,25.50
2023-01-22T10:00:27.446Z,22.17
2023-01-22T10:01:30.297Z,22.33
2023-01-22T10:02:46.909Z,20.73
2023-01-22T10:03:56.962Z,19.27
2023-01-22T10:05:39.952Z,18.70
2023-01-22T10:06:43.772Z,20.23
2023-01-22T10:07:57.534Z,19.40
2023-01-22T10:09:20.862Z,21.70
2023-01-22T10:10:27.614Z,20.50
2023-01-22T10:11:29.415Z,21.60
2023-01-22T10:12:33.337Z,21.27
2023-01-22T10:13:37.760Z,23.47
2023-01-22T10:14:41.172Z,24.63
2023-01-22T10:15:43.095Z,28.03
2023-01-22T10:16:45.642Z,23.30
2023-01-22T10:17:48.204Z,24.07
2023-01-22T10:19:05.434Z,25.27
2023-01-22T10:20:10.778Z,27.23
2023-01-22T10:21:18.642Z,24.60
2023-01-22T10:22:23.364Z,24.73
2023-01-22T10:23:26.290Z,23.50
2023-01-22T10:24:29.338Z,23.67
2023-01-22T10:25:31.421Z,24.83
2023-01-22T10:26:37.270Z,24.83
2023-01-22T10:27:39.655Z,24.90
2023-01-22T10:28:47.726Z,23.30
2023-01-22T10:30:09.175Z,23.07
2023-01-22T10:31:30.194Z,22.30
2023-01-22T10:32:32.691Z,24.87
2023-01-22T10:33:38.985Z,22.03
2023-01-22T10:34:40.893Z,23.70
2023-01-22T10:35:46.459Z,22.07
2023-01-22T10:36:53.185Z,22.83
2023-01-22T10:37:56.371Z,21.70
2023-01-22T10:39:10.244Z,23.70
2023-01-22T10:40:43.549Z,21.57
2023-01-22T10:41:47.724Z,22.63
2023-01-22T10:43:12.514Z,20.10
2023-01-22T10:44:23.793Z,22.43
2023-01-22T10:45:25.728Z,21.27
2023-01-22T10:46:27.584Z,20.37
2023-01-22T10:47:29.492Z,21.23
2023-01-22T10:48:31.779Z,22.70
2023-01-22T10:49:33.692Z,21.17
2023-01-22T10:50:35.552Z,20.70
2023-01-22T10:51:44.058Z,19.10
2023-01-22T10:52:57.224Z,21.33
2023-01-22T10:53:59.859Z,22.40
2023-01-22T10:55:02.779Z,19.70
2023-01-22T10:56:12.407Z,19.80
2023-01-22T10:57:27.020Z,19.83
2023-01-22T10:58:36.041Z,20.30
2023-01-22T10:59:38.315Z,22.90
2023-01-22T11:00:51.434Z,21.00
2023-01-22T11:02:19.210Z,19.37
2023-01-22T11:03:31.010Z,19.37
2023-01-22T11:04:34.041Z,19.00
2023-01-22T11:05:37.104Z,20.30
2023-01-22T11:06:48.221Z,20.57
2023-01-22T11:07:58.535Z,19.80
2023-01-22T11:09:11.861Z,17.30
2023-01-22T11:10:19.796Z,18.20
2023-01-22T11:11:34.673Z,19.30
2023-01-22T11:12:41.182Z,18.30
2023-01-22T11:13:59.460Z,20.53
2023-01-22T11:15:22.138Z,18.20
2023-01-22T11:16:25.291Z,18.03
2023-01-22T11:17:37.598Z,19.23
2023-01-22T11:18:48.146Z,19.97
2023-01-22T11:20:04.334Z,17.13
2023-01-22T11:21:15.223Z,19.53
2023-01-22T11:22:33.451Z,19.90
2023-01-22T11:23:44.449Z,17.73
2023-01-22T11:24:48.510Z,19.90
2023-01-22T11:26:22.050Z,18.97
2023-01-22T11:27:41.755Z,18.33
2023-01-22T11:28:52.512Z,17.77
2023-01-22T11:30:31.496Z,17.67
2023-01-22T11:31:59.411Z,20.43
2023-01-22T11:33:28.563Z,19.10
2023-01-22T11:34:45.347Z,19.00
2023-01-22T11:36:13.996Z,18.70
2023-01-22T11:37:37.348Z,18.70
2023-01-22T11:38:41.774Z,20.43
2023-01-22T11:39:43.535Z,18.97
2023-01-22T11:40:57.056Z,20.23
2023-01-22T11:42:16.890Z,17.50
2023-01-22T11:44:09.469Z,19.83
2023-01-22T11:46:26.888Z,18.00
2023-01-22T11:47:42.119Z,21.80
2023-01-22T11:49:02.525Z,21.23
2023-01-22T11:50:27.392Z,20.23
2023-01-22T11:51:33.027Z,17.27
2023-01-22T11:53:06.880Z,21.20
2023-01-22T11:54:29.903Z,20.73
2023-01-22T11:55:52.072Z,20.67
2023-01-22T11:57:05.700Z,19.10
2023-01-22T11:58:35.270Z,19.37
2023-01-22T11:59:50.699Z,20.93
2023-01-22T12:00:59.500Z,21.33
2023-01-22T12:02:32.115Z,18.50
2023-01-22T12:03:46.638Z,19.80
2023-01-22T12:05:09.937Z,19.07
2023-01-22T12:06:46.008Z,18.93
2023-01-22T12:07:59.579Z,19.97
2023-01-22T12:09:11.121Z,23.23
2023-01-22T12:10:24.659Z,21.30
2023-01-22T12:11:45.077Z,20.13
2023-01-22T12:13:03.163Z,20.47
2023-01-22T12:14:10.645Z,21.47
2023-01-22T12:15:35.775Z,20.87
2023-01-22T12:16:45.314Z,19.47
2023-01-22T12:18:00.554Z,19.67
2023-01-22T12:19:33.174Z,21.03
2023-01-22T12:21:06.647Z,21.87
2023-01-22T12:22:26.593Z,28.03
2023-01-22T12:23:35.795Z,19.90
2023-01-22T12:24:43.212Z,24.47
2023-01-22T12:25:55.123Z,19.27
2023-01-22T12:27:09.879Z,23.73
2023-01-22T12:28:15.645Z,19.23
2023-01-22T12:29:28.979Z,20.80
2023-01-22T12:30:39.811Z,19.63
2023-01-22T12:31:56.100Z,18.50
2023-01-22T12:33:00.214Z,19.23
2023-01-22T12:34:04.598Z,17.93
2023-01-22T12:35:21.946Z,19.57
2023-01-22T12:36:25.170Z,18.00
2023-01-22T12:37:42.529Z,18.97
2023-01-22T12:39:06.186Z,18.00
2023-01-22T12:40:45.461Z,17.80
2023-01-22T12:41:57.435Z,18.40
2023-01-22T12:43:07.119Z,17.73
2023-01-22T12:44:27.048Z,20.37
2023-01-22T12:45:55.862Z,20.03
2023-01-22T12:47:31.581Z,18.17
2023-01-22T12:49:06.614Z,17.90
2023-01-22T12:50:21.250Z,18.87
2023-01-22T12:51:44.927Z,18.50
2023-01-22T12:52:59.044Z,20.23
2023-01-22T12:54:24.610Z,18.33
2023-01-22T12:55:31.007Z,20.10
2023-01-22T12:56:33.165Z,19.07
2023-01-22T12:57:40.627Z,18.63
2023-01-22T12:58:43.044Z,18.63
2023-01-22T12:59:57.037Z,19.83
2023-01-22T13:01:11.299Z,18.60
2023-01-22T13:02:26.929Z,17.87
2023-01-22T13:03:32.301Z,17.43
2023-01-22T13:04:34.550Z,18.40
2023-01-22T13:05:38.744Z,16.53
2023-01-22T13:06:43.672Z,17.60
2023-01-22T13:07:46.462Z,17.13
2023-01-22T13:08:48.605Z,17.23
2023-01-22T13:10:05.720Z,15.93
2023-01-22T13:11:35.059Z,17.90
2023-01-22T13:12:47.039Z,18.10
2023-01-22T13:13:58.504Z,19.67
2023-01-22T13:15:05.214Z,18.67
2023-01-22T13:16:16.820Z,17.43
2023-01-22T13:17:29.904Z,18.53
2023-01-22T13:18:39.173Z,18.70
2023-01-22T13:19:44.854Z,16.83
2023-01-22T13:20:56.541Z,19.17
2023-01-22T13:22:00.323Z,18.03
2023-01-22T13:23:02.532Z,17.30
2023-01-22T13:24:12.001Z,19.33
2023-01-22T13:25:28.983Z,17.83
2023-01-22T13:26:34.271Z,16.93
2023-01-22T13:27:36.758Z,17.00
2023-01-22T13:28:39.982Z,17.23
2023-01-22T13:29:42.694Z,16.63
2023-01-22T13:30:55.097Z,18.90
2023-01-22T13:32:02.954Z,18.00
2023-01-22T13:33:14.946Z,18.83
2023-01-22T13:34:16.751Z,15.60
2023-01-22T13:35:19.972Z,16.67
2023-01-22T13:36:22.026Z,17.53
2023-01-22T13:37:25.627Z,15.33
2023-01-22T13:38:29.842Z,15.07
2023-01-22T13:39:33.594Z,17.30
2023-01-22T13:40:50.203Z,18.63
2023-01-22T13:41:55.453Z,16.67
2023-01-22T13:42:59.110Z,15.67
2023-01-22T13:44:01.989Z,16.77
2023-01-22T13:45:04.040Z,18.17
2023-01-22T13:46:06.372Z,19.10
2023-01-22T13:47:08.381Z,16.77
2023-01-22T13:48:16.560Z,14.47
2023-01-22T13:49:23.845Z,14.67
2023-01-22T13:50:28.736Z,15.83
2023-01-22T13:51:32.777Z,17.03
2023-01-22T13:52:34.808Z,17.37
2023-01-22T13:53:42.777Z,16.70
2023-01-22T13:54:58.777Z,15.90
2023-01-22T13:56:01.241Z,15.53
2023-01-22T13:57:03.397Z,14.77
2023-01-22T13:58:05.401Z,16.30
2023-01-22T13:59:20.060Z,15.13
2023-01-22T14:00:34.483Z,16.57
2023-01-22T14:01:37.205Z,17.80